createdAt,value
2022-10-11T00:00:02.274Z,8.95
2022-10-11T00:02:35.269Z,12.95
2022-10-11T00:05:06.445Z,10.73
2022-10-11T00:07:39.081Z,14.05
2022-10-11T00:10:11.490Z,12.30
2022-10-11T00:12:42.720Z,11.40
2022-10-11T00:15:22.376Z,11.48
2022-10-11T00:17:53.713Z,10.23
2022-10-11T00:20:24.833Z,10.63
2022-10-11T00:22:56.257Z,10.18
2022-10-11T00:25:27.138Z,10.10
2022-10-11T00:27:58.184Z,8.73
2022-10-11T00:30:45.117Z,8.13
2022-10-11T00:33:29.453Z,9.70
2022-10-11T00:36:02.725Z,9.07
2022-10-11T00:38:48.298Z,8.82
2022-10-11T00:41:29.490Z,7.07
2022-10-11T00:44:24.364Z,9.13
2022-10-11T00:47:27.234Z,8.63
2022-10-11T00:50:12.754Z,8.27
2022-10-11T00:53:13.763Z,8.75
2022-10-11T00:55:57.254Z,10.02
2022-10-11T00:58:48.335Z,7.15
2022-10-11T01:01:30.743Z,7.28
2022-10-11T01:04:29.969Z,6.03
2022-10-11T01:07:15.560Z,9.02
2022-10-11T01:09:57.069Z,7.13
2022-10-11T01:13:01.250Z,9.02
2022-10-11T01:16:09.707Z,6.43
2022-10-11T01:19:10.978Z,6.30
2022-10-11T01:22:19.948Z,6.43
2022-10-11T01:25:27.944Z,6.68
2022-10-11T01:28:56.256Z,7.78
2022-10-11T01:32:00.096Z,8.18
2022-10-11T01:34:48.633Z,6.05
2022-10-11T01:38:09.893Z,8.98
2022-10-11T01:41:09.449Z,5.28
2022-10-11T01:44:13.281Z,6.90
2022-10-11T01:46:56.230Z,6.13
2022-10-11T01:52:52.709Z,4.75
2022-10-11T01:55:54.613Z,6.87
2022-10-11T01:59:29.116Z,7.63
2022-10-11T02:02:36.949Z,6.07
2022-10-11T02:06:12.278Z,5.80
2022-10-11T02:09:05.716Z,6.72
2022-10-11T02:13:10.246Z,5.45
2022-10-11T02:16:14.996Z,7.00
2022-10-11T02:19:16.940Z,6.40
2022-10-11T02:22:39.089Z,7.70
2022-10-11T02:25:25.857Z,5.57
2022-10-11T02:28:17.009Z,5.93
2022-10-11T02:31:04.652Z,4.18
2022-10-11T02:34:13.274Z,5.28
2022-10-11T02:37:55.408Z,5.53
2022-10-11T02:40:44.976Z,7.43
2022-10-11T02:44:11.078Z,6.53
2022-10-11T02:46:57.193Z,5.50
2022-10-11T02:50:13.023Z,5.20
2022-10-11T02:53:09.019Z,6.95
2022-10-11T02:56:21.152Z,6.55
2022-10-11T02:59:21.048Z,7.88
2022-10-11T03:02:08.451Z,9.07
2022-10-11T03:04:53.797Z,5.72
2022-10-11T03:08:00.510Z,7.13
2022-10-11T03:11:22.614Z,5.00
2022-10-11T03:14:04.249Z,5.90
2022-10-11T03:17:23.780Z,4.82
2022-10-11T03:20:25.723Z,4.93
2022-10-11T03:23:25.694Z,5.30
2022-10-11T03:26:10.982Z,7.00
2022-10-11T03:28:52.938Z,7.30
2022-10-11T03:31:50.283Z,4.80
2022-10-11T03:34:50.438Z,7.43
2022-10-11T03:37:55.274Z,4.60
2022-10-11T03:40:40.286Z,7.15
2022-10-11T03:43:44.196Z,5.37
2022-10-11T03:46:28.651Z,6.85
2022-10-11T03:49:26.835Z,5.38
2022-10-11T03:52:24.918Z,5.28
2022-10-11T03:55:22.438Z,4.97
2022-10-11T03:58:04.404Z,7.07
2022-10-11T04:00:45.919Z,4.93
2022-10-11T04:03:29.893Z,5.93
2022-10-11T04:06:15.247Z,4.75
2022-10-11T04:09:25.001Z,6.55
2022-10-11T04:12:11.599Z,6.43
2022-10-11T04:15:24.781Z,6.22
2022-10-11T04:18:22.882Z,5.05
2022-10-11T04:21:04.052Z,4.75
2022-10-11T04:23:44.950Z,4.32
2022-10-11T04:29:40.249Z,3.97
2022-10-11T04:32:40.590Z,4.55
2022-10-11T04:35:46.541Z,6.05
2022-10-11T04:38:27.939Z,4.57
2022-10-11T04:41:14.728Z,5.15
2022-10-11T04:44:16.086Z,7.43
2022-10-11T04:47:00.925Z,5.32
2022-10-11T04:50:03.507Z,5.15
2022-10-11T04:52:46.120Z,5.03
2022-10-11T04:55:30.834Z,4.63
2022-10-11T04:58:15.476Z,4.88
2022-10-11T05:00:56.955Z,6.43
2022-10-11T05:03:59.167Z,4.07
2022-10-11T05:06:57.131Z,7.07
2022-10-11T05:09:42.425Z,4.70
2022-10-11T05:12:42.056Z,5.22
2022-10-11T05:15:58.668Z,4.97
2022-10-11T05:19:01.713Z,4.28
2022-10-11T05:21:43.437Z,6.32
2022-10-11T05:24:25.035Z,3.47
2022-10-11T05:27:14.359Z,7.45
2022-10-11T05:30:13.612Z,3.97
2022-10-11T05:32:58.900Z,5.53
2022-10-11T05:36:02.644Z,4.55
2022-10-11T05:38:47.346Z,6.25
2022-10-11T05:41:30.834Z,4.88
2022-10-11T05:44:15.373Z,3.13
2022-10-11T05:47:17.089Z,3.70
2022-10-11T05:50:41.719Z,4.28
2022-10-11T05:53:26.360Z,5.10
2022-10-11T05:56:18.769Z,7.40
2022-10-11T05:59:25.277Z,4.60
2022-10-11T06:02:26.780Z,4.25
2022-10-11T06:05:49.737Z,6.53
2022-10-11T06:08:38.109Z,4.95
2022-10-11T06:11:29.712Z,5.68
2022-10-11T06:14:27.430Z,4.53
2022-10-11T06:17:43.638Z,3.53
2022-10-11T06:20:56.941Z,4.65
2022-10-11T06:24:00.923Z,4.85
2022-10-11T06:27:01.741Z,4.10
2022-10-11T06:30:48.578Z,3.60
2022-10-11T06:33:29.962Z,5.07
2022-10-11T06:36:37.444Z,4.50
2022-10-11T06:39:37.811Z,5.22
2022-10-11T06:42:49.257Z,3.63
2022-10-11T06:45:45.986Z,4.22
2022-10-11T06:51:27.985Z,3.00
2022-10-11T06:54:44.877Z,5.13
2022-10-11T06:57:50.745Z,4.25
2022-10-11T07:00:51.799Z,4.43
2022-10-11T07:03:55.026Z,4.28
2022-10-11T07:06:40.300Z,5.40
2022-10-11T07:09:40.381Z,3.38
2022-10-11T07:12:40.778Z,4.25
2022-10-11T07:15:39.779Z,4.90
2022-10-11T07:19:00.959Z,3.75
2022-10-11T07:22:03.038Z,4.25
2022-10-11T07:25:03.092Z,4.47
2022-10-11T07:27:45.225Z,5.28
2022-10-11T07:31:05.552Z,3.63
2022-10-11T07:33:46.742Z,4.20
2022-10-11T07:36:51.791Z,3.65
2022-10-11T07:39:33.411Z,6.57
2022-10-11T07:42:30.776Z,4.40
2022-10-11T07:45:12.427Z,7.72
2022-10-11T07:48:23.890Z,3.75
2022-10-11T07:51:23.576Z,4.55
2022-10-11T07:54:21.472Z,5.88
2022-10-11T07:57:03.571Z,6.85
2022-10-11T08:00:00.230Z,4.10
2022-10-11T08:03:23.270Z,3.92
2022-10-11T08:06:33.686Z,3.58
2022-10-11T08:09:34.615Z,5.32
2022-10-11T08:12:16.108Z,2.90
2022-10-11T08:15:41.961Z,3.88
2022-10-11T08:18:45.092Z,5.35
2022-10-11T08:21:43.277Z,4.72
2022-10-11T08:24:43.564Z,4.88
2022-10-11T08:27:40.899Z,8.00
2022-10-11T08:31:15.902Z,3.88
2022-10-11T08:34:16.576Z,3.70
2022-10-11T08:37:13.300Z,6.70
2022-10-11T08:40:39.214Z,4.07
2022-10-11T08:44:26.820Z,4.57
2022-10-11T08:47:39.268Z,4.97
2022-10-11T08:51:04.770Z,3.90
2022-10-11T08:54:32.952Z,4.85
2022-10-11T08:57:39.191Z,4.88
2022-10-11T09:00:56.473Z,4.35
2022-10-11T09:04:10.789Z,4.20
2022-10-11T09:07:26.835Z,4.95
2022-10-11T09:10:16.065Z,6.40
2022-10-11T09:13:12.819Z,5.10
2022-10-11T09:16:07.973Z,6.60
2022-10-11T09:19:16.357Z,6.30
2022-10-11T09:21:54.167Z,6.88
2022-10-11T09:25:09.265Z,7.10
2022-10-11T09:31:14.417Z,5.50
2022-10-11T09:34:37.317Z,5.50
2022-10-11T09:37:47.579Z,5.13
2022-10-11T09:41:15.679Z,6.75
2022-10-11T09:44:09.853Z,6.85
2022-10-11T09:47:01.690Z,6.60
2022-10-11T09:50:02.281Z,8.48
2022-10-11T09:53:23.088Z,7.88
2022-10-11T09:56:04.263Z,7.15
2022-10-11T09:58:57.051Z,9.25
2022-10-11T10:01:49.361Z,7.95
2022-10-11T10:05:00.729Z,8.05
2022-10-11T10:07:52.057Z,7.38
2022-10-11T10:11:05.352Z,9.63
2022-10-11T10:35:29.127Z,7.47
2022-10-11T10:38:26.711Z,11.30
2022-10-11T10:41:55.996Z,8.65
2022-10-11T10:44:27.270Z,7.45
2022-10-11T10:46:58.409Z,9.00
2022-10-11T10:50:10.942Z,6.78
2022-10-11T10:52:47.771Z,7.50
2022-10-11T10:55:30.414Z,6.75
2022-10-11T10:58:22.330Z,8.23
2022-10-11T11:01:18.410Z,9.65
2022-10-11T11:04:29.717Z,7.68
2022-10-11T11:07:23.203Z,7.75
2022-10-11T11:10:31.717Z,5.80
2022-10-11T11:13:11.760Z,7.15
2022-10-11T11:18:44.615Z,6.85
2022-10-11T12:09:02.988Z,7.55
2022-10-11T12:11:39.879Z,7.28
2022-10-11T12:15:06.039Z,6.03
2022-10-11T12:17:57.642Z,7.38
2022-10-11T12:21:27.345Z,7.47
2022-10-11T12:24:11.803Z,7.93
2022-10-11T12:47:12.997Z,8.68
2022-10-11T12:49:47.575Z,6.47
2022-10-11T12:52:24.606Z,9.75
2022-10-11T12:55:13.955Z,7.25
2022-10-11T12:58:13.699Z,8.52
2022-10-11T13:00:54.477Z,8.30
2022-10-11T13:03:32.798Z,8.35
2022-10-11T13:06:51.355Z,7.32
2022-10-11T13:31:28.120Z,7.22
2022-10-11T13:34:01.003Z,6.97
2022-10-11T13:36:55.100Z,7.50
2022-10-11T13:39:47.893Z,6.53
2022-10-11T14:01:04.343Z,7.40
2022-10-11T14:04:01.991Z,8.30
2022-10-11T14:07:20.122Z,8.60
2022-10-11T14:10:43.922Z,8.52
2022-10-11T14:13:34.220Z,7.07
2022-10-11T14:33:30.226Z,6.30
2022-10-11T14:36:01.640Z,6.85
2022-10-11T14:42:37.938Z,8.68
2022-10-11T14:45:30.933Z,9.30
2022-10-11T14:58:05.335Z,9.93
2022-10-11T15:00:38.158Z,7.63
2022-10-11T15:03:41.370Z,7.28
2022-10-11T15:06:59.685Z,8.30
2022-10-11T15:34:33.511Z,8.17
2022-10-11T15:37:47.641Z,6.95
2022-10-11T15:40:45.936Z,8.57
2022-10-11T15:43:48.339Z,6.93
2022-10-11T15:46:44.025Z,10.85
2022-10-11T16:05:48.781Z,7.35
2022-10-11T16:21:36.970Z,8.02
2022-10-11T16:24:53.794Z,6.20
2022-10-11T16:27:26.316Z,6.05
2022-10-11T16:40:11.138Z,6.47
2022-10-11T16:43:24.961Z,7.18
2022-10-11T16:46:42.953Z,8.63
2022-10-11T16:49:57.082Z,6.53
2022-10-11T16:52:56.483Z,7.00
2022-10-11T16:55:28.476Z,7.95
2022-10-11T17:18:42.325Z,6.57
2022-10-11T17:21:36.204Z,7.00
2022-10-11T17:24:07.231Z,7.20
2022-10-11T17:27:18.017Z,7.35
2022-10-11T17:30:13.324Z,6.75
2022-10-11T17:33:08.001Z,9.57
2022-10-11T17:35:39.965Z,7.68
2022-10-11T17:38:11.620Z,7.10
2022-10-11T17:40:44.053Z,10.02
2022-10-11T17:56:12.953Z,8.48
2022-10-11T17:59:04.405Z,5.60
2022-10-11T18:01:35.705Z,7.55
2022-10-11T18:04:08.127Z,7.97
2022-10-11T18:06:42.645Z,7.85
2022-10-11T18:09:40.141Z,8.25
2022-10-11T18:32:38.917Z,5.75
2022-10-11T18:35:49.878Z,7.22
2022-10-11T18:38:44.152Z,6.45
2022-10-11T18:41:40.705Z,6.22
2022-10-11T18:55:42.829Z,6.53
2022-10-11T18:58:13.950Z,6.63
2022-10-11T19:01:17.209Z,6.75
2022-10-11T19:04:17.148Z,6.47
2022-10-11T19:07:15.223Z,7.55
2022-10-11T19:09:46.265Z,7.38
2022-10-11T19:50:21.483Z,5.05
2022-10-11T19:52:52.423Z,5.88
2022-10-11T19:55:23.784Z,6.95
2022-10-11T19:57:54.957Z,8.57
2022-10-11T20:00:25.897Z,7.63
2022-10-11T20:02:56.885Z,7.88
2022-10-11T20:05:48.704Z,7.10
2022-10-11T20:08:19.603Z,7.72
2022-10-11T20:10:54.449Z,7.22
2022-10-11T20:13:25.321Z,7.75
2022-10-11T20:18:44.436Z,8.98
2022-10-11T20:21:18.504Z,8.52
2022-10-11T20:23:50.656Z,5.95
2022-10-11T20:26:26.990Z,8.05
2022-10-11T20:28:58.914Z,7.18
2022-10-11T20:31:34.939Z,6.05
2022-10-11T20:34:11.412Z,7.30
2022-10-11T20:36:48.204Z,10.65
2022-10-11T20:39:20.368Z,12.63
2022-10-11T20:41:51.457Z,20.95
2022-10-11T20:44:22.567Z,21.40
2022-10-11T20:46:54.988Z,23.27
2022-10-11T20:49:47.152Z,19.52
2022-10-11T20:52:39.013Z,22.20
2022-10-11T20:55:10.622Z,22.83
2022-10-11T20:58:02.532Z,19.35
2022-10-11T21:00:33.603Z,20.83
2022-10-11T21:03:04.491Z,21.65
2022-10-11T21:05:36.026Z,19.00
2022-10-11T21:08:07.597Z,16.50
2022-10-11T21:10:40.127Z,19.50
2022-10-11T21:13:11.235Z,16.00
2022-10-11T21:15:42.674Z,18.25
2022-10-11T21:18:14.902Z,16.45
2022-10-11T21:20:47.132Z,16.52
2022-10-11T21:23:20.440Z,15.32
2022-10-11T21:25:51.269Z,13.95
2022-10-11T21:28:41.936Z,16.58
2022-10-11T21:31:15.056Z,15.02
2022-10-11T21:33:46.895Z,15.43
2022-10-11T21:36:22.950Z,13.55
2022-10-11T21:38:56.248Z,12.30
2022-10-11T21:41:31.311Z,15.55
2022-10-11T21:44:02.429Z,15.32
2022-10-11T21:47:05.918Z,13.32
2022-10-11T21:49:25.011Z,14.10
2022-10-11T21:51:56.056Z,14.73
2022-10-11T21:54:27.081Z,13.10
2022-10-11T21:56:57.986Z,13.25
2022-10-11T21:59:30.202Z,12.38
2022-10-11T22:02:02.341Z,15.07
2022-10-11T22:04:54.430Z,13.75
2022-10-11T22:07:25.549Z,12.98
2022-10-11T22:10:02.117Z,13.55
2022-10-11T22:12:33.273Z,12.55
2022-10-11T22:15:04.505Z,12.68
2022-10-11T22:17:35.656Z,13.05
2022-10-11T22:20:07.029Z,13.88
2022-10-11T22:22:38.278Z,12.90
2022-10-11T22:25:09.751Z,14.70
2022-10-11T22:27:40.978Z,12.02
2022-10-11T22:30:12.447Z,13.27
2022-10-11T22:32:43.287Z,14.05
2022-10-11T22:35:14.154Z,11.57
2022-10-11T22:37:45.439Z,11.85
2022-10-11T22:40:16.416Z,13.18
2022-10-11T22:42:47.813Z,12.25
2022-10-11T22:45:19.034Z,10.50
2022-10-11T22:47:50.002Z,11.02
2022-10-11T22:50:21.799Z,11.63
2022-10-11T22:52:52.872Z,10.23
2022-10-11T22:55:24.384Z,12.70
2022-10-11T22:57:55.949Z,13.45
2022-10-11T23:00:28.104Z,10.70
2022-10-11T23:03:20.514Z,12.68
2022-10-11T23:06:02.270Z,12.00
2022-10-11T23:08:33.153Z,11.43
2022-10-11T23:11:08.889Z,11.13
2022-10-11T23:13:39.704Z,10.13
2022-10-11T23:16:12.750Z,12.38
2022-10-11T23:18:44.042Z,9.60
2022-10-11T23:21:14.925Z,13.00
2022-10-11T23:23:46.103Z,11.73
2022-10-11T23:26:18.695Z,12.32
2022-10-11T23:28:49.810Z,10.98
2022-10-11T23:31:21.327Z,11.10
2022-10-11T23:33:52.461Z,10.07
2022-10-11T23:36:28.782Z,10.70
2022-10-11T23:39:01.417Z,10.82
2022-10-11T23:41:32.817Z,10.18
2022-10-11T23:44:23.576Z,14.75
2022-10-11T23:46:54.420Z,15.73
2022-10-11T23:49:25.236Z,20.67
2022-10-11T23:52:18.943Z,21.33
2022-10-11T23:54:50.057Z,24.58
2022-10-11T23:57:22.488Z,21.63
2022-10-11T23:59:53.418Z,23.92
